Time;durP1;ratioP1;P1;durP2;ratioP2;P2;SDS_P1;SDS_P2;PMS_P1;PMS_P2;Temp;Humidity;BMP_temperature;BMP_pressure;BME280_temperature;BME280_humidity;BME280_pressure;Samples;Min_cycle;Max_cycle;Signal;HPM_P1;HPM_P2
2022/11/02 00:00:24;;;;;;;11.70;4.47;;;13.80;99.90;;;;;;6224447;23;20139;-67
2022/11/02 00:02:50;;;;;;;4.40;4.10;;;13.80;99.90;;;;;;6224190;23;20167;-66
2022/11/02 00:05:22;;;;;;;5.97;5.03;;;13.90;99.90;;;;;;6224379;23;20198;-67
2022/11/02 00:07:48;;;;;;;6.17;4.40;;;13.90;99.90;;;;;;6224220;23;20197;-66
2022/11/02 00:10:14;;;;;;;4.70;4.40;;;13.90;99.90;;;;;;6223920;23;20599;-67
2022/11/02 00:12:39;;;;;;;4.57;4.27;;;14.00;99.90;;;;;;6224256;23;20143;-66
2022/11/02 00:15:05;;;;;;;5.23;3.87;;;14.00;99.90;;;;;;6224286;23;20230;-66
2022/11/02 00:17:32;;;;;;;7.07;3.80;;;14.00;99.90;;;;;;6224083;23;20193;-67
2022/11/02 00:19:58;;;;;;;7.23;3.83;;;14.00;99.90;;;;;;6223838;23;20288;-67
2022/11/02 00:22:24;;;;;;;6.03;4.50;;;14.00;99.90;;;;;;6224064;23;20206;-67
2022/11/02 00:24:50;;;;;;;5.37;4.97;;;14.00;99.90;;;;;;6212756;23;20537;-66
2022/11/02 00:27:16;;;;;;;4.30;4.00;;;14.00;99.90;;;;;;6223531;23;20521;-67
2022/11/02 00:29:41;;;;;;;3.77;3.50;;;14.00;99.90;;;;;;6211911;23;20147;-67
2022/11/02 00:32:07;;;;;;;4.50;3.70;;;14.00;99.90;;;;;;6223865;22;20673;-67
2022/11/02 00:34:33;;;;;;;8.17;4.03;;;14.00;99.90;;;;;;6223778;23;20591;-67
2022/11/02 00:36:58;;;;;;;4.23;3.83;;;14.00;99.90;;;;;;6223894;23;20178;-67
2022/11/02 00:39:24;;;;;;;3.60;3.40;;;14.00;99.90;;;;;;6224060;23;20614;-66
2022/11/02 00:41:49;;;;;;;4.83;4.07;;;14.10;99.90;;;;;;6223936;23;20657;-66
2022/11/02 00:44:15;;;;;;;3.87;3.57;;;14.10;99.90;;;;;;6212355;23;20193;-67
2022/11/02 00:46:40;;;;;;;9.07;4.00;;;14.00;99.90;;;;;;6223896;23;20153;-67
2022/11/02 00:49:06;;;;;;;5.00;4.37;;;14.00;99.90;;;;;;6223625;23;20621;-66
2022/11/02 00:51:32;;;;;;;9.00;4.37;;;14.00;99.90;;;;;;6223850;23;20257;-67
2022/11/02 00:53:57;;;;;;;7.33;4.50;;;13.90;99.90;;;;;;6212142;23;20150;-66
2022/11/02 00:56:23;;;;;;;4.27;3.97;;;13.80;99.90;;;;;;6212130;23;20504;-67
2022/11/02 00:58:48;;;;;;;6.50;3.87;;;13.70;99.90;;;;;;6223643;23;20153;-67
2022/11/02 01:01:14;;;;;;;5.33;4.00;;;13.60;99.90;;;;;;6223378;23;20584;-67
2022/11/02 01:03:39;;;;;;;7.93;4.17;;;13.60;99.90;;;;;;6223658;23;20153;-67
2022/11/02 01:06:10;;;;;;;5.00;4.13;;;13.50;99.90;;;;;;6223703;23;20234;-68
2022/11/02 01:08:36;;;;;;;6.50;3.80;;;13.40;99.90;;;;;;6212528;23;20582;-67
2022/11/02 01:11:13;;;;;;;7.60;4.13;;;13.40;99.90;;;;;;6223107;23;20190;-67
2022/11/02 01:13:39;;;;;;;6.77;4.53;;;13.40;99.90;;;;;;6212124;23;20155;-66
2022/11/02 01:16:05;;;;;;;5.90;4.03;;;13.40;99.90;;;;;;6212400;23;20164;-67
2022/11/02 01:18:30;;;;;;;6.27;3.70;;;13.40;99.90;;;;;;6223918;23;20276;-67
2022/11/02 01:20:56;;;;;;;9.03;4.80;;;13.40;99.90;;;;;;6222861;23;20179;-67
2022/11/02 01:23:22;;;;;;;4.10;3.83;;;13.30;99.90;;;;;;6223814;23;20146;-67
2022/11/02 01:25:48;;;;;;;4.50;4.20;;;13.30;99.90;;;;;;6223419;23;20147;-66
2022/11/02 01:28:13;;;;;;;5.97;4.10;;;13.20;99.90;;;;;;6223836;23;20152;-66
2022/11/02 01:30:39;;;;;;;5.10;4.43;;;13.20;99.90;;;;;;6222987;23;20201;-66
2022/11/02 01:33:05;;;;;;;5.27;4.33;;;13.10;99.90;;;;;;6212427;23;20221;-67
2022/11/02 01:35:31;;;;;;;4.70;3.97;;;13.10;99.90;;;;;;6223607;23;20162;-68
2022/11/02 01:37:56;;;;;;;4.57;3.40;;;13.00;99.90;;;;;;6211628;23;20162;-67
2022/11/02 01:40:22;;;;;;;6.70;3.70;;;12.90;99.90;;;;;;6223234;23;20173;-68
2022/11/02 01:42:48;;;;;;;6.23;4.00;;;12.90;99.90;;;;;;6211891;23;20151;-67
2022/11/02 01:45:13;;;;;;;4.50;3.90;;;12.90;99.90;;;;;;6223918;23;20483;-67
2022/11/02 01:47:46;;;;;;;7.30;3.90;;;12.90;99.90;;;;;;6225745;23;20149;-67
2022/11/02 01:50:16;;;;;;;4.30;3.90;;;12.80;99.90;;;;;;6213447;23;20147;-67
2022/11/02 01:52:42;;;;;;;3.90;3.70;;;12.90;99.90;;;;;;6225568;23;20652;-67
2022/11/02 01:55:28;;;;;;;5.17;4.67;;;12.90;99.90;;;;;;6214064;23;20190;-66
2022/11/02 01:58:02;;;;;;;4.20;3.80;;;12.90;99.90;;;;;;6225570;23;20147;-67
2022/11/02 02:00:27;;;;;;;5.43;4.50;;;12.80;99.90;;;;;;6225002;23;20178;-67
2022/11/02 02:03:00;;;;;;;6.47;4.00;;;12.80;99.90;;;;;;6225819;23;20147;-67
2022/11/02 02:05:26;;;;;;;6.57;4.20;;;12.80;99.90;;;;;;6225511;23;20507;-67
2022/11/02 02:07:52;;;;;;;4.13;3.70;;;12.80;99.90;;;;;;6225613;23;20283;-66
2022/11/02 02:10:18;;;;;;;5.87;3.93;;;12.80;99.90;;;;;;6213583;23;20175;-67
2022/11/02 02:12:44;;;;;;;4.50;4.10;;;12.70;99.90;;;;;;6225683;23;20146;-67
2022/11/02 02:15:11;;;;;;;5.17;4.47;;;12.70;99.90;;;;;;6225430;23;20147;-67
2022/11/02 02:17:54;;;;;;;6.40;4.93;;;12.60;99.90;;;;;;6225604;23;20714;-67
2022/11/02 02:20:48;;;;;;;4.30;4.03;;;12.60;99.90;;;;;;6213541;23;20143;-67
2022/11/02 02:23:35;;;;;;;5.07;4.63;;;12.60;99.90;;;;;;6213910;23;20147;-67
2022/11/02 02:26:40;;;;;;;4.97;4.40;;;12.60;99.90;;;;;;6212340;23;20472;-67
2022/11/02 02:29:35;;;;;;;4.93;4.53;;;12.60;99.90;;;;;;6213860;23;20586;-68
2022/11/02 02:32:10;;;;;;;5.27;4.70;;;12.50;99.90;;;;;;6204743;23;20190;-67
2022/11/02 02:34:52;;;;;;;5.50;4.57;;;12.50;99.90;;;;;;6213723;23;20595;-67
2022/11/02 02:37:40;;;;;;;8.73;4.50;;;12.40;99.90;;;;;;6225329;23;20159;-67
2022/11/02 02:40:21;;;;;;;5.97;4.13;;;12.40;99.90;;;;;;6213560;23;20177;-67
2022/11/02 02:42:53;;;;;;;4.97;4.77;;;12.30;99.90;;;;;;6213625;23;20158;-67
2022/11/02 02:45:22;;;;;;;7.00;5.33;;;12.20;99.90;;;;;;6213995;23;20178;-66
2022/11/02 02:47:54;;;;;;;6.30;5.70;;;12.20;99.90;;;;;;6224865;23;20139;-67
2022/11/02 02:50:25;;;;;;;6.30;5.33;;;12.20;99.90;;;;;;6224930;23;20131;-66
2022/11/02 02:52:52;;;;;;;5.97;5.43;;;12.20;99.90;;;;;;6213371;23;20148;-67
2022/11/02 02:55:23;;;;;;;6.23;4.47;;;12.20;99.90;;;;;;6225192;23;20151;-67
2022/11/02 02:57:51;;;;;;;5.37;4.97;;;12.20;99.90;;;;;;6213028;23;20231;-66
2022/11/02 03:00:17;;;;;;;5.07;4.60;;;12.20;99.90;;;;;;6224661;23;20143;-67
2022/11/02 03:02:59;;;;;;;7.40;4.20;;;12.20;99.90;;;;;;6225015;23;20143;-67
2022/11/02 03:05:28;;;;;;;4.90;4.60;;;12.20;99.90;;;;;;6213606;23;20173;-67
2022/11/02 03:07:56;;;;;;;6.40;4.80;;;12.20;99.90;;;;;;6224806;23;20147;-67
2022/11/02 03:11:08;;;;;;;5.43;4.90;;;12.40;99.90;;;;;;6212980;23;20162;-67
2022/11/02 03:14:12;;;;;;;4.30;4.07;;;12.50;99.90;;;;;;6214279;23;20249;-68
2022/11/02 03:17:01;;;;;;;7.37;5.43;;;12.60;99.90;;;;;;6213126;23;20201;-68
2022/11/02 03:19:49;;;;;;;7.03;6.47;;;12.70;99.90;;;;;;6213136;23;20143;-68
2022/11/02 03:22:33;;;;;;;5.00;4.53;;;12.70;99.90;;;;;;6224753;23;20174;-65
2022/11/02 03:25:26;;;;;;;5.10;4.60;;;12.70;99.90;;;;;;6224696;23;20479;-66
2022/11/02 03:28:08;;;;;;;7.30;4.33;;;12.70;99.90;;;;;;6224562;23;20214;-66
2022/11/02 03:30:49;;;;;;;4.27;3.83;;;12.80;99.90;;;;;;6224222;23;20201;-66
2022/11/02 03:33:32;;;;;;;4.37;4.03;;;12.90;99.90;;;;;;6214705;22;20194;-65
2022/11/02 03:36:09;;;;;;;3.90;3.60;;;13.00;99.90;;;;;;6225216;23;20132;-65
2022/11/02 03:39:03;;;;;;;9.53;4.07;;;13.10;99.90;;;;;;6224775;23;20246;-65
2022/11/02 03:41:30;;;;;;;4.20;3.90;;;13.40;99.90;;;;;;6224040;23;20183;-65
2022/11/02 03:44:02;;;;;;;4.90;4.50;;;13.40;99.90;;;;;;6224765;23;20167;-67
2022/11/02 03:46:31;;;;;;;8.37;4.20;;;13.50;99.90;;;;;;6224630;23;20131;-65
2022/11/02 03:48:59;;;;;;;5.53;3.90;;;13.50;99.90;;;;;;6224360;23;20147;-66
2022/11/02 03:51:26;;;;;;;3.70;3.40;;;13.50;99.90;;;;;;6212250;23;20175;-65
2022/11/02 03:54:04;;;;;;;5.17;4.13;;;13.40;99.90;;;;;;6224140;23;20151;-65
2022/11/02 03:56:43;;;;;;;5.00;3.70;;;13.40;99.90;;;;;;6224286;23;20138;-67
2022/11/02 03:59:09;;;;;;;8.33;4.30;;;13.30;99.90;;;;;;6224285;23;20571;-65
2022/11/02 04:01:43;;;;;;;6.17;4.27;;;13.20;99.90;;;;;;6224360;23;20183;-65
2022/11/02 04:04:09;;;;;;;4.10;3.80;;;13.00;99.90;;;;;;6224203;23;20155;-66
2022/11/02 04:06:36;;;;;;;4.27;4.07;;;12.80;99.90;;;;;;6224296;23;20139;-65
2022/11/02 04:09:02;;;;;;;6.47;4.10;;;12.70;99.90;;;;;;6223831;23;20151;-65
2022/11/02 04:19:41;;;;;;;7.37;4.83;;;12.50;99.90;;;;;;6223730;23;20173;-66
2022/11/02 04:27:35;;;;;;;7.13;4.10;;;12.60;99.90;;;;;;6224285;23;20531;-67
2022/11/02 04:30:00;;;;;;;6.20;5.23;;;12.70;99.90;;;;;;6223459;23;20176;-66
2022/11/02 04:35:11;;;;;;;5.00;4.60;;;12.80;99.90;;;;;;6223902;23;20475;-66
2022/11/02 04:40:25;;;;;;;4.57;4.17;;;12.80;99.90;;;;;;6223604;23;20146;-65
2022/11/02 04:42:51;;;;;;;4.67;3.87;;;12.80;99.90;;;;;;6223789;23;20217;-66
2022/11/02 04:45:16;;;;;;;4.30;4.00;;;12.80;99.90;;;;;;6223809;23;20242;-65
2022/11/02 04:47:42;;;;;;;5.83;4.00;;;12.70;99.90;;;;;;6223764;23;20147;-66
2022/11/02 04:50:08;;;;;;;7.07;4.20;;;12.70;99.90;;;;;;6223554;23;20174;-66
2022/11/02 04:52:34;;;;;;;4.53;3.93;;;12.70;99.90;;;;;;6223884;23;20171;-65
2022/11/02 04:54:59;;;;;;;4.00;3.80;;;12.60;99.90;;;;;;6223691;23;20147;-66
2022/11/02 04:57:25;;;;;;;4.33;4.03;;;12.50;99.90;;;;;;6222811;23;20206;-66
2022/11/02 04:59:51;;;;;;;5.53;4.60;;;12.60;99.90;;;;;;6223414;23;20208;-66
2022/11/02 05:02:16;;;;;;;5.43;4.47;;;12.60;99.90;;;;;;6223612;23;20212;-66
2022/11/02 05:04:42;;;;;;;5.27;4.60;;;12.60;99.90;;;;;;6224256;23;20177;-66
2022/11/02 05:07:10;;;;;;;6.07;4.57;;;12.50;99.90;;;;;;6224152;23;20245;-66
2022/11/02 05:09:36;;;;;;;4.60;4.20;;;12.50;99.90;;;;;;6223301;23;20201;-65
2022/11/02 05:12:03;;;;;;;4.30;3.90;;;12.50;99.90;;;;;;6223693;23;20171;-66
2022/11/02 05:14:32;;;;;;;7.83;4.63;;;12.50;99.90;;;;;;6223767;23;20151;-65
2022/11/02 05:16:57;;;;;;;5.70;4.77;;;12.50;99.90;;;;;;6223641;23;20461;-66
2022/11/02 05:19:23;;;;;;;5.07;4.63;;;12.50;99.90;;;;;;6223446;23;20185;-67
2022/11/02 05:21:49;;;;;;;11.60;4.77;;;12.50;99.90;;;;;;6223311;23;20178;-66
2022/11/02 05:24:15;;;;;;;5.63;3.93;;;12.40;99.90;;;;;;6223574;23;20146;-65
2022/11/02 05:26:40;;;;;;;5.97;4.10;;;12.40;99.90;;;;;;6223752;23;20598;-65
2022/11/02 05:29:07;;;;;;;5.93;4.10;;;12.40;99.90;;;;;;6223416;23;20150;-66
2022/11/02 05:31:32;;;;;;;5.03;4.20;;;12.40;99.90;;;;;;6223423;23;20502;-67
2022/11/02 05:33:58;;;;;;;4.00;3.70;;;12.30;99.90;;;;;;6223594;23;20193;-66
2022/11/02 05:36:24;;;;;;;7.97;4.77;;;12.30;99.90;;;;;;6223809;23;20158;-66
2022/11/02 05:38:53;;;;;;;4.40;4.17;;;12.20;99.90;;;;;;6223603;23;20151;-66
2022/11/02 05:41:19;;;;;;;10.40;4.07;;;12.10;99.90;;;;;;6223012;23;20173;-65
2022/11/02 05:43:45;;;;;;;6.20;5.00;;;12.10;99.90;;;;;;6223494;23;20143;-66
2022/11/02 05:46:13;;;;;;;7.77;4.17;;;12.10;99.90;;;;;;6223961;23;20166;-65
2022/11/02 05:48:39;;;;;;;5.80;5.27;;;12.10;99.90;;;;;;6223630;23;20220;-66
2022/11/02 05:51:05;;;;;;;6.03;5.03;;;12.10;99.90;;;;;;6223151;23;20379;-66
2022/11/02 05:53:32;;;;;;;11.70;4.73;;;12.10;99.90;;;;;;6223477;23;20147;-66
2022/11/02 05:56:00;;;;;;;9.50;4.77;;;12.10;99.90;;;;;;6223568;23;20659;-66
2022/11/02 05:58:26;;;;;;;4.77;4.40;;;12.10;99.90;;;;;;6223536;23;20499;-65
2022/11/02 06:00:52;;;;;;;4.73;4.47;;;12.10;99.90;;;;;;6223046;23;20171;-66
2022/11/02 06:03:18;;;;;;;4.80;4.20;;;12.10;99.90;;;;;;6223303;23;20165;-66
2022/11/02 06:05:44;;;;;;;7.33;4.20;;;12.20;99.90;;;;;;6223582;23;20147;-66
2022/11/02 06:08:09;;;;;;;4.80;4.40;;;12.20;99.90;;;;;;6223373;23;20153;-66
2022/11/02 06:10:35;;;;;;;8.37;4.27;;;12.20;99.90;;;;;;6223245;23;20159;-65
2022/11/02 06:13:02;;;;;;;8.00;4.23;;;12.20;99.90;;;;;;6223277;23;20167;-66
2022/11/02 06:15:30;;;;;;;5.97;4.93;;;12.20;99.90;;;;;;6223487;23;20217;-66
2022/11/02 06:17:56;;;;;;;7.73;4.80;;;12.20;99.90;;;;;;6223140;23;20621;-65
2022/11/02 06:20:22;;;;;;;4.67;4.20;;;12.20;99.90;;;;;;6223174;23;20147;-65
2022/11/02 06:22:48;;;;;;;6.70;4.73;;;12.30;99.90;;;;;;6223400;23;20534;-66
2022/11/02 06:25:14;;;;;;;4.77;4.37;;;12.30;99.90;;;;;;6223232;23;20538;-66
2022/11/02 06:27:41;;;;;;;5.20;4.10;;;12.30;99.90;;;;;;6223470;23;20182;-66
2022/11/02 06:30:07;;;;;;;4.67;4.33;;;12.30;99.90;;;;;;6222654;23;20143;-66
2022/11/02 06:32:33;;;;;;;8.13;4.40;;;12.30;99.90;;;;;;6224396;23;20490;-66
2022/11/02 06:34:59;;;;;;;4.60;4.30;;;12.30;99.90;;;;;;6225023;23;20139;-66
2022/11/02 06:37:25;;;;;;;5.93;5.07;;;12.30;99.90;;;;;;6225085;23;20483;-66
2022/11/02 06:39:50;;;;;;;4.23;3.93;;;12.20;99.90;;;;;;6224574;23;20142;-66
2022/11/02 06:42:16;;;;;;;8.60;4.20;;;12.20;99.90;;;;;;6224890;23;20581;-66
2022/11/02 06:44:41;;;;;;;7.10;5.90;;;12.20;99.90;;;;;;6213517;23;20155;-66
2022/11/02 06:47:07;;;;;;;7.20;4.10;;;12.20;99.90;;;;;;6224859;23;20158;-67
2022/11/02 06:49:32;;;;;;;4.70;4.30;;;12.20;99.90;;;;;;6225401;23;20147;-66
2022/11/02 06:51:58;;;;;;;6.63;4.87;;;12.20;99.90;;;;;;6224801;23;20170;-66
2022/11/02 06:54:24;;;;;;;9.83;4.50;;;12.20;99.90;;;;;;6224953;23;20151;-66
2022/11/02 06:56:49;;;;;;;5.20;4.50;;;12.20;99.90;;;;;;6224877;23;20151;-67
2022/11/02 06:59:15;;;;;;;5.10;4.70;;;12.20;99.90;;;;;;6224764;23;20488;-66
2022/11/02 07:01:40;;;;;;;5.70;4.23;;;12.20;99.90;;;;;;6224197;23;20664;-66
2022/11/02 07:04:06;;;;;;;8.13;5.00;;;12.30;99.90;;;;;;6224889;23;20147;-66
2022/11/02 07:06:31;;;;;;;8.20;4.53;;;12.30;99.90;;;;;;6224926;23;20582;-67
2022/11/02 07:08:57;;;;;;;9.03;5.43;;;12.30;99.90;;;;;;6233697;23;20143;-66
2022/11/02 07:11:23;;;;;;;4.30;4.00;;;12.30;99.90;;;;;;6239474;23;20171;-65
2022/11/02 07:13:48;;;;;;;11.80;4.67;;;12.30;99.90;;;;;;6235766;23;20269;-66
2022/11/02 07:16:14;;;;;;;5.20;4.20;;;12.30;99.90;;;;;;6223310;23;20202;-67
2022/11/02 07:18:40;;;;;;;5.37;4.87;;;12.30;99.90;;;;;;6225015;23;20225;-66
2022/11/02 07:21:09;;;;;;;3.73;3.60;;;12.40;99.90;;;;;;6223920;23;20676;-65
2022/11/02 07:23:34;;;;;;;10.90;4.70;;;12.40;99.90;;;;;;6224510;23;20147;-66
2022/11/02 07:26:01;;;;;;;8.93;4.73;;;12.40;99.90;;;;;;6224130;23;20221;-65
2022/11/02 07:28:26;;;;;;;6.43;4.83;;;12.40;99.90;;;;;;6224675;23;20139;-65
2022/11/02 07:30:55;;;;;;;4.53;4.00;;;12.50;99.90;;;;;;6212197;23;20181;-65
2022/11/02 07:33:21;;;;;;;4.83;4.00;;;12.50;99.90;;;;;;6224256;22;20217;-66
2022/11/02 07:35:46;;;;;;;4.43;4.00;;;12.60;99.90;;;;;;6224230;23;20221;-67
2022/11/02 07:38:12;;;;;;;7.00;4.53;;;12.80;99.90;;;;;;6224347;23;20157;-66
2022/11/02 07:40:38;;;;;;;4.53;3.63;;;13.10;99.90;;;;;;6223586;23;20226;-66
2022/11/02 07:43:05;;;;;;;4.33;4.03;;;13.50;99.90;;;;;;6223550;23;20162;-67
2022/11/02 07:45:31;;;;;;;3.93;3.63;;;13.90;99.90;;;;;;6224684;23;20475;-66
2022/11/02 07:47:56;;;;;;;3.87;3.57;;;14.20;99.90;;;;;;6224373;23;20673;-66
2022/11/02 07:50:24;;;;;;;3.90;3.60;;;14.30;99.90;;;;;;6224084;23;20245;-66
2022/11/02 07:52:51;;;;;;;4.17;3.40;;;14.40;99.90;;;;;;6224186;23;20236;-67
2022/11/02 07:55:20;;;;;;;4.17;3.60;;;14.70;99.90;;;;;;6224251;23;20147;-66
2022/11/02 07:58:03;;;;;;;5.80;4.37;;;14.80;99.90;;;;;;6224100;23;20333;-66
2022/11/02 08:00:36;;;;;;;3.70;3.50;;;15.00;99.90;;;;;;6223767;23;20146;-66
2022/11/02 08:03:02;;;;;;;5.03;3.43;;;15.20;99.90;;;;;;6223822;23;20163;-66
2022/11/02 08:05:30;;;;;;;4.40;3.83;;;15.30;99.90;;;;;;6224248;23;20143;-65
2022/11/02 08:08:04;;;;;;;3.73;3.50;;;15.60;99.90;;;;;;6213395;23;20178;-67
2022/11/02 08:10:31;;;;;;;4.80;3.40;;;15.70;99.90;;;;;;6223809;23;20170;-66
2022/11/02 08:12:56;;;;;;;7.63;4.17;;;15.70;99.90;;;;;;6223619;23;20224;-66
2022/11/02 08:15:23;;;;;;;4.53;4.13;;;15.70;99.90;;;;;;6224051;23;20175;-66
2022/11/02 08:18:05;;;;;;;4.10;3.70;;;15.70;99.90;;;;;;6223705;23;20157;-66
2022/11/02 08:20:31;;;;;;;5.03;4.03;;;15.50;99.90;;;;;;6211859;23;20158;-65
2022/11/02 08:22:57;;;;;;;4.93;4.50;;;15.60;99.90;;;;;;6223770;23;20167;-66
2022/11/02 08:25:23;;;;;;;3.90;3.60;;;15.50;99.90;;;;;;6222975;23;20493;-66
2022/11/02 08:27:49;;;;;;;6.97;4.67;;;15.40;99.90;;;;;;6223880;23;20595;-65
2022/11/02 08:30:15;;;;;;;5.80;3.60;;;15.40;99.90;;;;;;6223395;23;20158;-65
2022/11/02 08:32:40;;;;;;;3.97;3.60;;;15.50;99.90;;;;;;6223734;23;20186;-65
2022/11/02 08:35:06;;;;;;;4.43;3.67;;;15.50;99.90;;;;;;6223664;23;20484;-66
2022/11/02 08:37:32;;;;;;;8.83;3.90;;;15.70;99.90;;;;;;6223945;23;20174;-66
2022/11/02 08:39:57;;;;;;;3.30;3.10;;;15.70;99.90;;;;;;6222969;23;20657;-66
2022/11/02 08:42:23;;;;;;;8.27;4.10;;;15.90;99.90;;;;;;6223972;23;20245;-65
2022/11/02 08:44:49;;;;;;;7.47;3.20;;;16.00;99.90;;;;;;6214238;23;20509;-66
2022/11/02 08:47:14;;;;;;;7.37;3.40;;;16.20;99.90;;;;;;6223895;23;20222;-66
2022/11/02 08:49:40;;;;;;;4.93;3.60;;;16.40;99.90;;;;;;6223818;23;20485;-66
2022/11/02 08:52:06;;;;;;;7.83;3.73;;;16.60;99.90;;;;;;6223723;23;20687;-67
2022/11/02 08:54:31;;;;;;;4.47;3.53;;;16.70;99.90;;;;;;6223485;23;20645;-67
2022/11/02 08:56:57;;;;;;;4.73;3.27;;;17.00;99.90;;;;;;6223961;23;20173;-66
2022/11/02 08:59:22;;;;;;;4.17;3.77;;;16.80;99.90;;;;;;6223593;23;20153;-66
2022/11/02 09:01:48;;;;;;;7.07;4.30;;;16.50;99.90;;;;;;6221662;23;20182;-66
2022/11/02 09:04:13;;;;;;;4.40;4.00;;;16.40;99.90;;;;;;6223458;23;20583;-65
2022/11/02 09:06:39;;;;;;;9.53;4.43;;;16.70;99.90;;;;;;6223612;23;20174;-66
2022/11/02 09:09:05;;;;;;;6.37;3.63;;;16.80;99.90;;;;;;6220851;23;20155;-65
2022/11/02 09:11:30;;;;;;;5.00;3.23;;;17.10;99.90;;;;;;6223049;23;20245;-66
2022/11/02 09:13:56;;;;;;;3.67;3.40;;;17.30;99.90;;;;;;6223172;23;20158;-65
2022/11/02 09:16:22;;;;;;;6.23;3.70;;;16.80;99.90;;;;;;6223395;23;20527;-66
2022/11/02 09:18:47;;;;;;;5.57;3.30;;;17.10;99.90;;;;;;6223494;23;20530;-66
2022/11/02 09:21:13;;;;;;;4.17;3.77;;;17.20;99.90;;;;;;6222081;23;20166;-67
2022/11/02 09:23:39;;;;;;;5.23;3.40;;;17.30;99.90;;;;;;6223264;23;20597;-66
2022/11/02 09:26:04;;;;;;;5.87;3.40;;;17.30;99.90;;;;;;6223294;23;20135;-65
2022/11/02 09:28:30;;;;;;;3.50;2.97;;;17.20;99.90;;;;;;6223454;23;20648;-67
2022/11/02 09:30:56;;;;;;;8.37;4.27;;;17.30;99.90;;;;;;6223034;23;20146;-66
2022/11/02 09:33:21;;;;;;;3.67;3.37;;;17.60;99.90;;;;;;6213502;22;20199;-66
2022/11/02 09:35:48;;;;;;;8.03;3.40;;;17.50;99.90;;;;;;6223187;23;20178;-65
2022/11/02 09:38:15;;;;;;;6.60;3.40;;;17.50;99.90;;;;;;6186685;23;20174;-66
2022/11/02 09:40:44;;;;;;;5.50;3.47;;;17.60;99.90;;;;;;6223021;23;20151;-65
2022/11/02 09:43:39;;;;;;;6.50;2.97;;;17.80;99.90;;;;;;6211023;23;20518;-65
2022/11/02 09:46:25;;;;;;;5.80;3.50;;;18.00;99.90;;;;;;6223566;23;20174;-66
2022/11/02 09:49:18;;;;;;;3.87;2.90;;;18.20;99.90;;;;;;6211059;23;20489;-67
2022/11/02 09:51:51;;;;;;;5.10;3.20;;;18.10;99.90;;;;;;6209422;23;20634;-65
2022/11/02 09:54:40;;;;;;;4.60;3.50;;;18.10;99.90;;;;;;6211221;23;20179;-66
2022/11/02 09:57:13;;;;;;;3.50;3.30;;;18.30;99.90;;;;;;6210311;23;20158;-66
2022/11/02 09:59:40;;;;;;;5.10;3.73;;;18.40;99.90;;;;;;6222998;23;20135;-66
2022/11/02 10:02:43;;;;;;;6.97;3.13;;;17.80;99.90;;;;;;6222643;23;20578;-67
2022/11/02 10:05:46;;;;;;;7.33;4.13;;;17.80;99.90;;;;;;6211561;23;20201;-67
2022/11/02 10:08:36;;;;;;;4.10;3.40;;;17.60;99.90;;;;;;6149217;23;20155;-66
2022/11/02 10:11:36;;;;;;;4.23;3.77;;;17.50;99.90;;;;;;6224491;23;20185;-66
2022/11/02 10:14:16;;;;;;;6.03;4.20;;;17.50;99.90;;;;;;6224757;23;20151;-66
2022/11/02 10:16:45;;;;;;;5.03;3.40;;;17.40;99.90;;;;;;6224276;23;20454;-66
2022/11/02 10:19:15;;;;;;;3.47;3.17;;;17.70;99.90;;;;;;6225150;23;20159;-65
2022/11/02 10:21:45;;;;;;;5.83;3.50;;;17.50;99.90;;;;;;6225406;23;20186;-66
2022/11/02 10:24:24;;;;;;;5.50;3.37;;;17.60;99.90;;;;;;6224838;23;20154;-66
2022/11/02 10:26:54;;;;;;;7.10;3.33;;;17.90;99.90;;;;;;6224835;23;20205;-66
2022/11/02 10:29:44;;;;;;;11.93;6.47;;;18.10;99.90;;;;;;6224576;23;20134;-66
2022/11/02 10:32:12;;;;;;;3.20;2.90;;;18.20;99.90;;;;;;6224750;23;20244;-66
2022/11/02 10:34:39;;;;;;;4.20;3.67;;;17.90;99.90;;;;;;6224716;23;20205;-67
2022/11/02 10:37:32;;;;;;;5.37;3.33;;;17.90;99.90;;;;;;6224942;23;20143;-64
2022/11/02 10:40:12;;;;;;;3.97;3.03;;;18.00;99.90;;;;;;6224377;23;20852;-67
2022/11/02 10:43:05;;;;;;;4.23;2.63;;;18.10;99.90;;;;;;6224887;23;20201;-66
2022/11/02 10:45:46;;;;;;;3.73;3.00;;;18.40;99.90;;;;;;6223179;23;20135;-64
2022/11/02 10:48:30;;;;;;;3.70;3.40;;;18.50;99.90;;;;;;6213061;23;20489;-66
2022/11/02 10:51:05;;;;;;;4.97;3.20;;;18.50;99.90;;;;;;6224779;23;20146;-66
2022/11/02 10:53:43;;;;;;;3.80;3.50;;;18.70;99.90;;;;;;6224987;23;20216;-66
2022/11/02 10:56:14;;;;;;;4.97;3.30;;;18.70;99.90;;;;;;6225231;23;20135;-67
2022/11/02 10:58:57;;;;;;;5.53;3.23;;;18.70;99.90;;;;;;6224741;23;20587;-66
2022/11/02 11:01:24;;;;;;;4.53;2.80;;;18.70;99.90;;;;;;6224290;23;20163;-66
2022/11/02 11:04:02;;;;;;;8.33;3.90;;;18.90;99.90;;;;;;6224834;23;20143;-66
2022/11/02 11:06:29;;;;;;;3.00;2.80;;;18.70;99.90;;;;;;6224647;23;20138;-66
2022/11/02 11:09:01;;;;;;;3.40;3.13;;;18.50;99.90;;;;;;6224644;23;20147;-66
2022/11/02 11:11:31;;;;;;;7.27;3.60;;;18.20;99.90;;;;;;6224492;23;20143;-65
2022/11/02 11:14:16;;;;;;;8.63;3.37;;;18.30;99.90;;;;;;6224697;23;20158;-65
2022/11/02 11:16:45;;;;;;;3.57;3.27;;;18.70;99.90;;;;;;6212785;23;20147;-66
2022/11/02 11:19:40;;;;;;;4.63;3.70;;;19.10;99.90;;;;;;6212469;23;20613;-66
2022/11/02 11:22:23;;;;;;;5.37;3.27;;;18.90;99.90;;;;;;6223893;23;20202;-66
2022/11/02 11:24:49;;;;;;;4.57;2.90;;;18.30;99.90;;;;;;6213110;23;20157;-65
2022/11/02 11:27:17;;;;;;;5.03;3.30;;;18.30;99.90;;;;;;6224515;23;20143;-65
2022/11/02 11:29:48;;;;;;;6.50;3.50;;;18.30;99.90;;;;;;6224403;23;20150;-66
2022/11/02 11:32:25;;;;;;;3.73;3.10;;;18.10;99.90;;;;;;6224692;23;20190;-65
2022/11/02 11:35:16;;;;;;;3.80;3.47;;;17.90;99.90;;;;;;6223805;23;20170;-66
2022/11/02 11:37:58;;;;;;;4.63;3.30;;;18.10;99.90;;;;;;6224519;23;20158;-65
2022/11/02 11:40:25;;;;;;;6.00;3.40;;;18.30;99.90;;;;;;6224382;23;20143;-67
2022/11/02 11:42:54;;;;;;;4.63;3.57;;;18.40;99.90;;;;;;6224313;23;20676;-66
2022/11/02 11:45:28;;;;;;;2.90;2.70;;;18.40;99.90;;;;;;6213107;23;20147;-66
2022/11/02 11:48:31;;;;;;;3.90;2.80;;;18.30;99.90;;;;;;6224652;23;20571;-65
2022/11/02 11:50:58;;;;;;;4.43;3.13;;;18.20;99.90;;;;;;6212983;23;20216;-65
2022/11/02 11:53:25;;;;;;;3.70;3.10;;;18.10;99.90;;;;;;6212964;23;20200;-65
2022/11/02 11:55:52;;;;;;;10.23;3.73;;;18.20;99.90;;;;;;6212806;23;20186;-67
2022/11/02 11:58:33;;;;;;;7.77;3.37;;;18.60;99.90;;;;;;6224485;23;20493;-67
2022/11/02 12:01:15;;;;;;;8.03;3.33;;;18.80;99.90;;;;;;6223904;23;20241;-66
2022/11/02 12:03:51;;;;;;;6.93;3.63;;;19.20;99.90;;;;;;6223502;23;20289;-67
2022/11/02 12:06:30;;;;;;;3.67;3.00;;;19.40;99.90;;;;;;6223609;23;20646;-67
2022/11/02 12:09:04;;;;;;;3.27;2.97;;;19.50;99.90;;;;;;6224702;23;20131;-67
2022/11/02 12:11:33;;;;;;;4.73;3.43;;;19.40;99.90;;;;;;6212103;23;20151;-66
2022/11/02 12:14:33;;;;;;;4.47;3.30;;;19.40;99.90;;;;;;6224158;23;20157;-66
2022/11/02 12:17:10;;;;;;;4.27;2.87;;;19.50;99.90;;;;;;6222160;23;20205;-67
2022/11/02 12:20:09;;;;;;;7.53;3.07;;;19.60;99.90;;;;;;6223658;23;20571;-67
2022/11/02 12:22:47;;;;;;;5.33;3.37;;;19.50;99.90;;;;;;6223803;23;20182;-67
2022/11/02 12:25:39;;;;;;;4.10;3.37;;;19.70;99.90;;;;;;6212343;23;20597;-66
2022/11/02 12:28:23;;;;;;;3.40;3.10;;;19.90;99.90;;;;;;6223902;23;20135;-67
2022/11/02 12:31:07;;;;;;;4.07;3.47;;;20.20;99.90;;;;;;6223200;23;20131;-67
2022/11/02 12:33:38;;;;;;;3.50;3.07;;;20.10;99.90;;;;;;6211857;23;20182;-67
2022/11/02 12:36:04;;;;;;;4.27;3.37;;;19.80;99.90;;;;;;6223764;23;20147;-67
2022/11/02 12:38:33;;;;;;;3.07;2.80;;;20.00;99.90;;;;;;6223799;23;20143;-65
2022/11/02 12:41:31;;;;;;;9.77;3.07;;;20.10;99.90;;;;;;6223354;23;20170;-66
2022/11/02 12:44:09;;;;;;;5.13;3.30;;;20.10;99.90;;;;;;6202551;23;20625;-65
2022/11/02 12:46:44;;;;;;;6.27;2.80;;;19.60;99.90;;;;;;6223777;23;20135;-65
2022/11/02 12:49:38;;;;;;;7.67;3.30;;;19.00;99.90;;;;;;6223569;23;20131;-65
2022/11/02 12:52:28;;;;;;;5.30;3.97;;;18.70;99.90;;;;;;6223819;23;20398;-65
2022/11/02 12:55:00;;;;;;;5.00;3.43;;;18.60;99.90;;;;;;6223650;23;20159;-65
2022/11/02 12:57:30;;;;;;;5.40;3.33;;;18.20;99.90;;;;;;6223487;23;20544;-65
2022/11/02 13:00:06;;;;;;;3.63;3.33;;;17.80;99.90;;;;;;6211355;23;20158;-65
2022/11/02 13:02:56;;;;;;;4.17;3.60;;;17.30;99.90;;;;;;6221462;23;20178;-65
2022/11/02 13:05:31;;;;;;;3.80;3.47;;;17.10;99.90;;;;;;6223456;23;20151;-66
2022/11/02 13:08:00;;;;;;;9.33;4.13;;;16.90;99.90;;;;;;6222669;23;20134;-67
2022/11/02 13:10:37;;;;;;;5.37;3.53;;;16.90;99.90;;;;;;6223351;23;20143;-66
2022/11/02 13:13:03;;;;;;;3.97;3.43;;;17.00;99.90;;;;;;6222973;23;20205;-67
2022/11/02 13:15:33;;;;;;;5.43;3.43;;;16.70;99.90;;;;;;6223676;23;20173;-67
2022/11/02 13:18:05;;;;;;;4.13;3.43;;;16.60;99.90;;;;;;6222940;23;20170;-66
2022/11/02 13:20:48;;;;;;;5.77;3.40;;;16.70;99.90;;;;;;6211626;23;20154;-67
2022/11/02 13:23:32;;;;;;;3.73;3.23;;;17.00;99.90;;;;;;6223592;23;20489;-64
2022/11/02 13:26:02;;;;;;;4.93;3.67;;;17.20;99.90;;;;;;6223500;23;20153;-65